createdAt,value
2022-11-17T00:01:19.579Z,18.30
2022-11-17T00:03:47.520Z,7.93
2022-11-17T00:06:14.686Z,5.20
2022-11-17T00:08:41.945Z,6.80
2022-11-17T00:11:09.155Z,4.37
2022-11-17T00:13:54.903Z,6.83
2022-11-17T00:16:22.301Z,5.53
2022-11-17T00:19:08.109Z,7.23
2022-11-17T00:21:35.373Z,11.87
2022-11-17T00:24:02.559Z,7.37
2022-11-17T00:26:30.562Z,7.93
2022-11-17T00:28:58.469Z,11.23
2022-11-17T00:31:44.978Z,20.20
2022-11-17T00:34:13.633Z,11.30
2022-11-17T00:36:50.503Z,11.47
2022-11-17T00:39:17.998Z,7.97
2022-11-17T00:41:45.184Z,12.27
2022-11-17T00:44:12.454Z,13.53
2022-11-17T00:46:39.781Z,7.47
2022-11-17T00:49:07.320Z,11.80
2022-11-17T00:51:34.561Z,11.20
2022-11-17T00:54:01.796Z,6.17
2022-11-17T00:56:29.052Z,7.33
2022-11-17T00:58:56.239Z,7.33
2022-11-17T01:01:23.679Z,11.23
2022-11-17T01:03:50.985Z,8.67
2022-11-17T01:06:19.006Z,5.97
2022-11-17T01:08:46.358Z,2.40
2022-11-17T01:11:14.706Z,2.30
2022-11-17T01:13:41.998Z,3.10
2022-11-17T01:16:10.058Z,3.17
2022-11-17T01:18:37.274Z,2.33
2022-11-17T01:21:11.422Z,3.60
2022-11-17T01:23:39.041Z,4.37
2022-11-17T01:26:07.017Z,4.80
2022-11-17T01:28:34.351Z,6.30
2022-11-17T01:31:21.798Z,3.40
2022-11-17T01:33:49.123Z,3.77
2022-11-17T01:36:17.194Z,8.13
2022-11-17T01:38:44.431Z,10.53
2022-11-17T01:41:15.678Z,13.90
2022-11-17T01:43:52.467Z,11.77
2022-11-17T01:46:36.608Z,3.60
2022-11-17T01:49:06.130Z,7.80
2022-11-17T01:51:33.901Z,7.13
2022-11-17T01:54:01.191Z,8.80
2022-11-17T01:56:30.097Z,6.07
2022-11-17T01:58:59.515Z,6.77
2022-11-17T02:01:26.838Z,6.07
2022-11-17T02:03:54.037Z,2.93
2022-11-17T02:06:34.192Z,4.00
2022-11-17T02:09:01.471Z,3.13
2022-11-17T02:11:28.641Z,2.23
2022-11-17T02:13:55.899Z,3.87
2022-11-17T02:16:23.087Z,4.27
2022-11-17T02:18:50.329Z,5.07
2022-11-17T02:21:35.677Z,5.20
2022-11-17T02:24:21.326Z,4.83
2022-11-17T02:27:03.877Z,12.83
2022-11-17T02:29:38.525Z,15.47
2022-11-17T02:32:08.439Z,14.57
2022-11-17T02:34:38.505Z,4.47
2022-11-17T02:37:18.514Z,10.57
2022-11-17T02:39:45.664Z,9.33
2022-11-17T02:42:17.245Z,2.73
2022-11-17T02:44:52.567Z,4.43
2022-11-17T02:47:21.025Z,4.03
2022-11-17T02:49:52.392Z,3.07
2022-11-17T02:52:19.575Z,2.63
2022-11-17T02:54:46.712Z,2.03
2022-11-17T02:57:34.138Z,1.40
2022-11-17T03:00:02.340Z,1.33
2022-11-17T03:03:02.028Z,1.73
2022-11-17T03:05:29.917Z,2.20
2022-11-17T03:08:20.148Z,3.50
2022-11-17T03:10:58.072Z,4.50
2022-11-17T03:13:27.113Z,4.63
2022-11-17T03:15:59.041Z,7.63
2022-11-17T03:18:26.203Z,31.73
2022-11-17T03:20:56.461Z,9.23
2022-11-17T03:23:25.753Z,18.20
2022-11-17T03:25:54.852Z,5.03
2022-11-17T03:28:22.682Z,15.60
2022-11-17T03:30:49.826Z,5.93
2022-11-17T03:33:20.850Z,3.87
2022-11-17T03:35:53.817Z,3.37
2022-11-17T03:38:21.580Z,2.90
2022-11-17T03:40:48.744Z,4.00
2022-11-17T03:43:16.169Z,3.77
2022-11-17T03:45:43.966Z,2.23
2022-11-17T03:48:15.013Z,2.90
2022-11-17T03:50:44.402Z,5.00
2022-11-17T03:53:11.548Z,3.60
2022-11-17T03:55:50.275Z,4.90
2022-11-17T03:58:18.279Z,6.57
2022-11-17T04:00:45.504Z,6.13
2022-11-17T04:03:12.683Z,6.23
2022-11-17T04:05:39.818Z,4.73
2022-11-17T04:08:07.057Z,3.97
2022-11-17T04:10:54.180Z,2.93
2022-11-17T04:13:40.229Z,3.77
2022-11-17T04:16:07.573Z,1.90
2022-11-17T04:18:34.764Z,2.27
2022-11-17T04:21:02.304Z,2.10
2022-11-17T04:23:29.488Z,2.50
2022-11-17T04:26:15.489Z,1.80
2022-11-17T04:28:44.316Z,2.17
2022-11-17T04:31:18.151Z,2.60
2022-11-17T04:33:46.348Z,3.30
2022-11-17T04:36:14.051Z,5.80
2022-11-17T04:38:41.860Z,4.40
2022-11-17T04:41:38.871Z,7.33
2022-11-17T04:44:06.361Z,22.50
2022-11-17T04:46:33.769Z,7.10
2022-11-17T04:49:01.025Z,9.30
2022-11-17T04:51:28.323Z,10.83
2022-11-17T04:53:55.556Z,4.80
2022-11-17T04:56:22.996Z,10.77
2022-11-17T04:58:50.251Z,5.03
2022-11-17T05:01:18.726Z,4.17
2022-11-17T05:03:48.700Z,5.10
2022-11-17T05:06:17.242Z,3.17
2022-11-17T05:08:44.511Z,2.67
2022-11-17T05:11:30.855Z,2.53
2022-11-17T05:13:58.083Z,3.40
2022-11-17T05:16:43.923Z,2.43
2022-11-17T05:19:14.946Z,2.77
2022-11-17T05:21:42.083Z,2.27
2022-11-17T05:24:09.509Z,4.23
2022-11-17T05:26:36.932Z,4.30
2022-11-17T05:29:04.785Z,6.43
2022-11-17T05:31:31.992Z,12.83
2022-11-17T05:33:59.155Z,7.60
2022-11-17T05:36:26.746Z,4.40
2022-11-17T05:38:54.031Z,13.60
2022-11-17T05:41:21.331Z,13.97
2022-11-17T05:43:50.344Z,7.30
2022-11-17T05:46:18.375Z,6.87
2022-11-17T05:48:45.891Z,5.47
2022-11-17T05:51:13.048Z,12.70
2022-11-17T05:53:40.193Z,6.63
2022-11-17T05:56:07.489Z,5.87
2022-11-17T05:58:34.824Z,4.33
2022-11-17T06:01:01.985Z,4.60
2022-11-17T06:03:30.560Z,3.63
2022-11-17T06:05:57.851Z,3.07
2022-11-17T06:08:25.133Z,7.90
2022-11-17T06:10:52.333Z,5.80
2022-11-17T06:13:26.002Z,9.03
2022-11-17T06:15:53.641Z,7.63
2022-11-17T06:18:20.837Z,14.00
2022-11-17T06:20:48.644Z,14.00
2022-11-17T06:23:16.016Z,9.23
2022-11-17T06:25:43.148Z,9.17
2022-11-17T06:28:11.507Z,5.77
2022-11-17T06:30:38.863Z,10.97
2022-11-17T06:33:06.500Z,6.77
2022-11-17T06:35:34.533Z,7.90
2022-11-17T06:38:02.129Z,6.03
2022-11-17T06:40:29.417Z,4.63
2022-11-17T06:43:09.542Z,5.33
2022-11-17T06:45:37.334Z,5.50
2022-11-17T06:48:04.807Z,5.17
2022-11-17T06:50:32.065Z,10.30
2022-11-17T06:52:59.712Z,10.63
2022-11-17T06:55:26.916Z,16.40
2022-11-17T06:57:58.598Z,18.80
2022-11-17T07:00:25.808Z,8.27
2022-11-17T07:02:52.914Z,14.57
2022-11-17T07:05:20.042Z,11.70
2022-11-17T07:07:47.160Z,16.93
2022-11-17T07:10:14.275Z,9.50
2022-11-17T07:12:41.436Z,11.77
2022-11-17T07:15:08.703Z,10.53
2022-11-17T07:17:35.828Z,11.47
2022-11-17T07:20:04.103Z,5.43
2022-11-17T07:22:31.198Z,4.93
2022-11-17T07:24:58.302Z,5.40
2022-11-17T07:27:25.444Z,6.97
2022-11-17T07:29:52.613Z,23.47
2022-11-17T07:32:19.816Z,12.20
2022-11-17T07:34:46.993Z,11.17
2022-11-17T07:37:14.090Z,11.23
2022-11-17T07:39:41.246Z,9.03
2022-11-17T07:42:08.429Z,10.30
2022-11-17T07:44:35.628Z,8.23
2022-11-17T07:47:02.773Z,7.17
2022-11-17T07:49:29.982Z,7.03
2022-11-17T07:51:57.304Z,9.73
2022-11-17T07:54:24.471Z,8.17
2022-11-17T07:56:51.596Z,6.43
2022-11-17T07:59:21.550Z,9.03
2022-11-17T08:01:48.846Z,6.33
2022-11-17T08:04:16.121Z,9.50
2022-11-17T08:06:43.261Z,9.37
2022-11-17T08:09:12.687Z,29.53
2022-11-17T08:11:39.819Z,13.10
2022-11-17T08:14:07.018Z,8.60
2022-11-17T08:16:34.221Z,13.77
2022-11-17T08:19:01.377Z,12.90
2022-11-17T08:21:28.659Z,15.63
2022-11-17T08:23:56.308Z,12.13
2022-11-17T08:26:25.470Z,19.17
2022-11-17T08:28:58.070Z,15.77
2022-11-17T08:31:25.728Z,9.47
2022-11-17T08:33:52.821Z,9.13
2022-11-17T08:36:19.976Z,9.27
2022-11-17T08:38:47.110Z,12.00
2022-11-17T08:41:14.226Z,8.23
2022-11-17T08:43:41.332Z,12.20
2022-11-17T08:46:11.484Z,11.23
2022-11-17T08:48:38.837Z,16.57
2022-11-17T08:51:06.855Z,16.83
2022-11-17T08:53:34.037Z,26.67
2022-11-17T08:56:01.162Z,9.43
2022-11-17T08:58:28.312Z,11.30
2022-11-17T09:00:57.630Z,9.40
2022-11-17T09:03:28.246Z,17.20
2022-11-17T09:05:55.430Z,16.93
2022-11-17T09:08:44.403Z,12.53
2022-11-17T09:11:10.367Z,20.17
2022-11-17T09:13:37.613Z,21.83
2022-11-17T09:16:05.169Z,18.03
2022-11-17T09:18:32.346Z,14.33
2022-11-17T09:21:02.750Z,21.07
2022-11-17T09:23:30.566Z,22.93
2022-11-17T09:25:58.020Z,12.93
2022-11-17T09:28:25.969Z,8.63
2022-11-17T09:30:53.359Z,9.40
2022-11-17T09:33:20.527Z,17.47
2022-11-17T09:35:47.644Z,12.47
2022-11-17T09:38:14.785Z,22.60
2022-11-17T09:40:41.947Z,8.33
2022-11-17T09:43:21.399Z,17.10
2022-11-17T09:45:48.568Z,16.47
2022-11-17T09:51:04.781Z,9.43
2022-11-17T09:53:37.157Z,12.57
2022-11-17T09:56:05.098Z,13.00
2022-11-17T09:58:34.187Z,9.17
2022-11-17T10:01:01.682Z,8.50
2022-11-17T10:03:30.257Z,15.77
2022-11-17T10:05:57.434Z,14.50
2022-11-17T10:08:30.416Z,5.63
2022-11-17T10:10:57.567Z,17.10
2022-11-17T10:13:25.796Z,9.57
2022-11-17T10:15:55.331Z,6.50
2022-11-17T10:18:22.440Z,11.03
2022-11-17T10:20:49.603Z,15.10
2022-11-17T10:23:18.402Z,16.43
2022-11-17T10:25:46.345Z,14.57
2022-11-17T10:28:27.249Z,6.30
2022-11-17T10:30:55.448Z,5.80
2022-11-17T10:33:43.535Z,7.63
2022-11-17T10:36:20.792Z,5.97
2022-11-17T10:38:49.041Z,5.80
2022-11-17T10:41:39.562Z,5.93
2022-11-17T10:44:15.636Z,15.17
2022-11-17T10:47:00.486Z,10.03
2022-11-17T10:49:30.640Z,15.70
2022-11-17T10:52:07.330Z,9.67
2022-11-17T10:54:34.452Z,4.43
2022-11-17T10:57:01.554Z,16.30
2022-11-17T10:59:29.652Z,11.93
2022-11-17T11:01:56.994Z,9.90
2022-11-17T11:04:34.011Z,12.53
2022-11-17T11:07:07.469Z,16.50
2022-11-17T11:09:35.353Z,6.57
2022-11-17T11:12:02.519Z,7.23
2022-11-17T11:14:40.259Z,19.67
2022-11-17T11:17:13.971Z,7.87
2022-11-17T11:19:42.126Z,7.67
2022-11-17T11:22:09.238Z,12.20
2022-11-17T11:24:55.020Z,10.67
2022-11-17T11:27:28.517Z,8.00
2022-11-17T11:29:59.906Z,9.57
2022-11-17T11:32:32.844Z,6.83
2022-11-17T11:35:17.445Z,8.57
2022-11-17T11:37:47.846Z,11.30
2022-11-17T11:40:16.198Z,7.70
2022-11-17T11:42:59.522Z,13.13
2022-11-17T11:45:37.699Z,10.40
2022-11-17T11:48:08.058Z,11.17
2022-11-17T11:50:41.635Z,15.00
2022-11-17T11:53:27.940Z,7.83
2022-11-17T11:56:00.381Z,10.83
2022-11-17T11:58:27.545Z,10.80
2022-11-17T12:01:03.525Z,9.17
2022-11-17T12:03:34.800Z,13.63
2022-11-17T12:06:29.759Z,7.13
2022-11-17T12:09:00.160Z,8.33
2022-11-17T12:11:45.850Z,7.47
2022-11-17T12:14:15.773Z,5.07
2022-11-17T12:16:44.549Z,6.67
2022-11-17T12:19:30.353Z,5.27
2022-11-17T12:21:57.825Z,6.93
2022-11-17T12:24:26.809Z,10.07
2022-11-17T12:26:53.945Z,6.60
2022-11-17T12:29:24.589Z,29.47
2022-11-17T12:31:55.463Z,49.57
2022-11-17T12:34:22.621Z,23.30
2022-11-17T12:37:08.500Z,19.60
2022-11-17T12:39:54.456Z,9.87
2022-11-17T12:42:21.634Z,13.63
2022-11-17T12:44:48.863Z,14.23
2022-11-17T12:47:25.293Z,11.57
2022-11-17T12:49:52.379Z,15.73
2022-11-17T12:52:32.935Z,21.37
2022-11-17T12:55:17.708Z,12.40
2022-11-17T12:57:45.087Z,20.67
2022-11-17T13:00:12.445Z,39.37
2022-11-17T13:02:48.907Z,19.50
2022-11-17T13:05:16.064Z,32.93
2022-11-17T13:07:43.280Z,24.87
2022-11-17T13:10:29.599Z,24.57
2022-11-17T13:13:20.267Z,26.27
2022-11-17T13:15:54.090Z,28.93
2022-11-17T13:18:26.744Z,32.13
2022-11-17T13:20:53.960Z,49.27
2022-11-17T13:23:25.792Z,71.47
2022-11-17T13:26:08.615Z,51.20
2022-11-17T13:28:35.774Z,35.47
2022-11-17T13:31:02.960Z,32.70
2022-11-17T13:33:32.399Z,48.47
2022-11-17T13:36:14.675Z,38.03
2022-11-17T13:38:47.147Z,34.77
2022-11-17T13:41:14.303Z,36.70
2022-11-17T13:43:41.508Z,39.47
2022-11-17T13:46:08.916Z,26.97
2022-11-17T13:48:39.946Z,29.93
2022-11-17T13:51:22.881Z,32.53
2022-11-17T13:53:52.856Z,27.77
2022-11-17T13:56:23.930Z,30.53
2022-11-17T13:58:51.239Z,26.97
2022-11-17T14:01:25.409Z,32.43
2022-11-17T14:03:52.668Z,39.70
2022-11-17T14:06:19.937Z,50.70
2022-11-17T14:09:02.289Z,41.07
2022-11-17T14:11:29.440Z,27.30
2022-11-17T14:14:01.023Z,36.97
2022-11-17T14:16:29.202Z,21.07
2022-11-17T14:18:57.171Z,43.43
2022-11-17T14:21:24.344Z,27.83
2022-11-17T14:23:51.573Z,13.30
2022-11-17T14:26:20.118Z,12.93
2022-11-17T14:28:47.835Z,14.57
2022-11-17T14:31:15.339Z,13.37
2022-11-17T14:33:42.488Z,16.20
2022-11-17T14:36:10.943Z,16.40
2022-11-17T14:38:38.113Z,19.80
2022-11-17T14:41:05.262Z,23.87
2022-11-17T14:43:32.461Z,17.37
2022-11-17T14:45:59.600Z,44.87
2022-11-17T14:48:26.784Z,38.17
2022-11-17T14:51:00.105Z,20.77
2022-11-17T14:53:27.334Z,35.70
2022-11-17T14:55:54.539Z,31.03
2022-11-17T14:58:22.469Z,31.77
2022-11-17T15:00:49.627Z,17.53
2022-11-17T15:03:16.927Z,34.50
2022-11-17T15:05:45.634Z,34.93
2022-11-17T15:08:12.988Z,18.20
2022-11-17T15:10:44.348Z,23.10
2022-11-17T15:13:11.594Z,22.67
2022-11-17T15:15:38.744Z,16.00
2022-11-17T15:18:05.987Z,25.60
2022-11-17T15:20:33.165Z,15.40
2022-11-17T15:23:03.168Z,15.47
2022-11-17T15:25:30.800Z,29.23
2022-11-17T15:27:57.982Z,32.33
2022-11-17T15:30:25.119Z,24.53
2022-11-17T15:32:52.266Z,39.10
2022-11-17T15:35:19.504Z,38.87
2022-11-17T15:37:46.693Z,26.33
2022-11-17T15:40:19.105Z,26.30
2022-11-17T15:42:46.651Z,22.33
2022-11-17T15:45:13.883Z,42.43
2022-11-17T15:47:41.031Z,28.70
2022-11-17T15:50:08.559Z,73.20
2022-11-17T15:53:02.207Z,35.13
2022-11-17T15:55:22.808Z,28.90
2022-11-17T15:57:49.966Z,43.43
2022-11-17T16:00:17.420Z,23.63
2022-11-17T16:02:44.592Z,32.90
2022-11-17T16:05:11.690Z,50.77
2022-11-17T16:07:39.926Z,60.03
2022-11-17T16:10:07.363Z,50.37
2022-11-17T16:12:34.521Z,32.20
2022-11-17T16:15:01.635Z,35.90
2022-11-17T16:17:28.775Z,51.77
2022-11-17T16:19:56.011Z,39.73
2022-11-17T16:22:23.138Z,30.40
2022-11-17T16:24:50.301Z,21.17
2022-11-17T16:27:17.461Z,19.63
2022-11-17T16:29:44.735Z,81.13
2022-11-17T16:32:11.914Z,150.03
2022-11-17T16:34:40.940Z,85.87
2022-11-17T16:37:08.103Z,81.63
2022-11-17T16:39:35.301Z,67.87
2022-11-17T16:42:02.474Z,51.37
2022-11-17T16:44:29.686Z,49.47
2022-11-17T16:46:56.883Z,32.63
2022-11-17T16:49:24.167Z,85.07
2022-11-17T16:51:52.026Z,46.53
2022-11-17T16:54:19.459Z,102.07
2022-11-17T16:56:46.694Z,78.27
2022-11-17T16:59:14.393Z,60.53
2022-11-17T17:01:41.826Z,82.70
2022-11-17T17:04:09.920Z,49.77
2022-11-17T17:06:38.237Z,41.27
2022-11-17T17:09:06.305Z,49.10
2022-11-17T17:11:33.756Z,66.93
2022-11-17T17:14:03.079Z,67.10
2022-11-17T17:16:30.378Z,70.00
2022-11-17T17:18:59.552Z,53.03
2022-11-17T17:21:26.916Z,46.57
2022-11-17T17:23:54.107Z,62.20
2022-11-17T17:26:22.298Z,52.53
2022-11-17T17:28:50.070Z,92.20
2022-11-17T17:31:21.428Z,72.73
2022-11-17T17:33:50.120Z,82.33
2022-11-17T17:36:18.130Z,80.33
2022-11-17T17:38:48.847Z,66.40
2022-11-17T17:41:19.588Z,55.47
2022-11-17T17:43:47.100Z,59.37
2022-11-17T17:46:15.841Z,43.47
2022-11-17T17:48:43.664Z,48.70
2022-11-17T17:51:14.661Z,47.07
2022-11-17T17:53:41.884Z,60.73
2022-11-17T17:56:13.095Z,54.97
2022-11-17T17:58:40.660Z,50.43
2022-11-17T18:01:08.721Z,54.73
2022-11-17T18:03:35.934Z,48.20
2022-11-17T18:06:03.136Z,52.10
2022-11-17T18:08:30.391Z,107.37
2022-11-17T18:11:01.027Z,61.83
2022-11-17T18:13:34.321Z,77.97
2022-11-17T18:16:11.428Z,55.23
2022-11-17T18:18:38.621Z,65.77
2022-11-17T18:21:09.328Z,53.50
2022-11-17T18:23:36.630Z,40.10
2022-11-17T18:26:17.194Z,60.03
2022-11-17T18:28:45.076Z,42.80
2022-11-17T18:31:12.933Z,41.97
2022-11-17T18:33:40.100Z,26.87
2022-11-17T18:36:08.099Z,43.23
2022-11-17T18:38:36.325Z,46.73
2022-11-17T18:41:04.530Z,45.77
2022-11-17T18:43:32.272Z,43.93
2022-11-17T18:46:06.277Z,32.07
2022-11-17T18:48:33.942Z,44.67
2022-11-17T18:51:18.587Z,49.73
2022-11-17T18:53:46.191Z,45.47
2022-11-17T18:56:14.067Z,42.57
2022-11-17T18:58:41.877Z,38.47
2022-11-17T19:01:09.788Z,49.63
2022-11-17T19:03:37.006Z,51.20
2022-11-17T19:06:04.459Z,42.03
2022-11-17T19:08:31.943Z,42.93
2022-11-17T19:11:04.688Z,48.37
2022-11-17T19:13:33.504Z,48.90
2022-11-17T19:16:07.537Z,49.23
2022-11-17T19:18:34.871Z,54.33
2022-11-17T19:21:08.990Z,69.83
2022-11-17T19:23:36.960Z,67.90
2022-11-17T19:26:07.498Z,66.53
2022-11-17T19:28:34.652Z,65.10
2022-11-17T19:31:24.852Z,73.77
2022-11-17T19:33:51.954Z,51.50
2022-11-17T19:36:23.081Z,44.30
2022-11-17T19:38:53.779Z,66.67
2022-11-17T19:41:21.743Z,61.47
2022-11-17T19:43:48.922Z,89.87
2022-11-17T19:46:16.886Z,134.23
2022-11-17T19:48:44.173Z,84.60
2022-11-17T19:51:14.416Z,84.43
2022-11-17T19:53:41.779Z,85.90
2022-11-17T19:56:09.128Z,77.47
2022-11-17T19:58:36.299Z,65.90
2022-11-17T20:01:10.256Z,69.00
2022-11-17T20:03:37.522Z,78.07
2022-11-17T20:06:04.900Z,71.73
2022-11-17T20:08:32.093Z,66.73
2022-11-17T20:11:02.871Z,65.27
2022-11-17T20:13:33.036Z,87.47
2022-11-17T20:16:00.255Z,79.00
2022-11-17T20:18:28.825Z,75.13
2022-11-17T20:20:55.991Z,74.93
2022-11-17T20:23:23.141Z,68.57
2022-11-17T20:25:50.290Z,65.37
2022-11-17T20:28:17.485Z,60.87
2022-11-17T20:30:44.879Z,50.27
2022-11-17T20:33:12.051Z,43.60
2022-11-17T20:35:39.234Z,62.53
2022-11-17T20:38:07.312Z,59.17
2022-11-17T20:40:35.811Z,48.10
2022-11-17T20:43:03.026Z,35.80
2022-11-17T20:45:30.146Z,36.47
2022-11-17T20:47:57.397Z,56.97
2022-11-17T20:50:24.531Z,66.17
2022-11-17T20:52:51.676Z,64.80
2022-11-17T20:55:18.826Z,50.30
2022-11-17T20:57:45.986Z,46.33
2022-11-17T21:00:13.340Z,53.23
2022-11-17T21:02:40.509Z,56.07
2022-11-17T21:05:07.768Z,53.53
2022-11-17T21:07:35.040Z,62.60
2022-11-17T21:10:02.262Z,37.23
2022-11-17T21:12:29.449Z,79.50
2022-11-17T21:14:56.629Z,55.10
2022-11-17T21:17:42.614Z,65.43
2022-11-17T21:20:10.149Z,56.40
2022-11-17T21:22:37.325Z,60.53
2022-11-17T21:25:04.690Z,32.50
2022-11-17T21:27:31.832Z,29.77
2022-11-17T21:29:59.273Z,31.60
2022-11-17T21:32:26.453Z,27.47
2022-11-17T21:34:54.260Z,29.33
2022-11-17T21:37:21.492Z,25.87
2022-11-17T21:39:48.665Z,31.23
2022-11-17T21:42:15.847Z,30.40
2022-11-17T21:44:42.952Z,28.77
2022-11-17T21:47:10.133Z,27.70
2022-11-17T21:49:37.273Z,27.73
2022-11-17T21:52:04.456Z,44.23
2022-11-17T21:54:31.587Z,42.87
2022-11-17T21:56:59.085Z,85.27
2022-11-17T21:59:26.183Z,51.53
2022-11-17T22:01:53.381Z,52.13
2022-11-17T22:04:20.708Z,68.27
2022-11-17T22:06:47.841Z,63.20
2022-11-17T22:09:15.367Z,54.83
2022-11-17T22:11:42.799Z,53.80
2022-11-17T22:14:09.952Z,43.33
2022-11-17T22:16:38.077Z,32.73
2022-11-17T22:19:05.339Z,30.77
2022-11-17T22:21:32.814Z,25.67
2022-11-17T22:24:00.018Z,26.23
2022-11-17T22:26:27.185Z,24.50
2022-11-17T22:28:55.007Z,27.20
2022-11-17T22:31:22.426Z,39.20
2022-11-17T22:33:49.765Z,53.93
2022-11-17T22:36:16.908Z,44.87
2022-11-17T22:38:44.141Z,42.87
2022-11-17T22:41:11.309Z,72.23
2022-11-17T22:43:38.471Z,111.83
2022-11-17T22:46:06.423Z,47.03
2022-11-17T22:48:33.541Z,39.97
2022-11-17T22:51:00.668Z,38.40
2022-11-17T22:53:28.008Z,32.03
2022-11-17T22:55:55.315Z,31.10
2022-11-17T22:58:22.420Z,31.60
2022-11-17T23:00:49.618Z,31.57
2022-11-17T23:03:16.820Z,34.57
2022-11-17T23:05:43.951Z,42.90
2022-11-17T23:08:11.115Z,36.67
2022-11-17T23:10:38.261Z,44.67
2022-11-17T23:13:05.375Z,31.93
2022-11-17T23:15:32.581Z,30.67
2022-11-17T23:17:59.675Z,32.23
2022-11-17T23:20:26.802Z,32.17
2022-11-17T23:22:54.996Z,34.10
2022-11-17T23:25:22.127Z,33.90
2022-11-17T23:27:49.275Z,35.03
2022-11-17T23:30:16.642Z,36.27
2022-11-17T23:32:43.787Z,38.30
2022-11-17T23:35:10.898Z,34.80
2022-11-17T23:37:38.188Z,33.73
2022-11-17T23:40:05.522Z,29.60
2022-11-17T23:42:33.955Z,36.47
2022-11-17T23:45:02.583Z,44.97
2022-11-17T23:47:30.140Z,42.10
2022-11-17T23:49:57.272Z,36.10
2022-11-17T23:52:24.431Z,35.43
2022-11-17T23:54:51.543Z,29.00
2022-11-17T23:57:18.699Z,28.07
2022-11-17T23:59:45.911Z,34.83
